Golden Shores, Arizona
Current Conditions -  °F | °C
As of 5:56 PM on Monday 26 Jan 2015 (Local Time) from KEED Reporting Station
Overcast Overcast  
Wind Chill: 62°   Ceiling: 6000
Heat Index: 62°   Visibility: 10mi
Dew Point: 47°   Wind: 0mph
Humidity: 58%   Direction: NA
Pressure: 30.08"   Gusts: NA
Location:  34.7791°N, 114.467°W
Report Text: KEED 270056Z AUTO 00000KT 10SM BKN060 OVC100 17/08 A3008 RMK AO2 SLP173 T01670083
Loading
Personal Weather Stations






























Interactive Weather Map New forecast layout! Learn more

10-Day Weather Forecast

Advertisements
Track Severe Weather on mobile